Naples, Italy

9:43 PM CET on December 10, 2016 (GMT +0100)
Calata San Marco | | Change Station

Elev 0 ft 40.84 °N, 14.25 °E | Updated 11 minutes ago

Scattered Clouds
Scattered Clouds
57.7 °F
Feels Like 57.7 °F
N
1.2
Wind Variable Wind from NNW
Gusts 3.1 mph

Today
High -- | Low -- °F
--% Chance of Precip.
Yesterday
High -- | Low -- °F
Precip. -- in
Pressure 30.33 in
Visibility 4.3 miles
Clouds Scattered Clouds 4000 ft
Dew Point 47 °F
Humidity 68%
Rainfall Not available.
Snow Depth Not available.
7:16 AM 4:34 PM
Waxing Gibbous, 86% visible
METAR LIRN 102020Z VRB03KT 7000 SCT040 09/06 Q1027 NOSIG
Pressure 30.33 in
Visibility 4.3 miles
Clouds Scattered Clouds 4000 ft
Dew Point 47 °F
Humidity 68%
Rainfall Not available.
Snow Depth Not available.
7:16 AM 4:34 PM
Waxing Gibbous, 86% visible
METAR LIRN 102020Z VRB03KT 7000 SCT040 09/06 Q1027 NOSIG

10-Day Weather Forecast

×

Almanac

Astronomy

Dec. 10, 2016 Rise Set
Actual Time
Civil Twilight
Nautical Twilight
Astronomical Twilight
Moon
Length of Visible Light
Length of Day
Tomorrow will be .
, % of the Moon is Illuminated

Today's Extremes

Country Highs Country Lows

Community

WunderPhotos

Upload Photos

1,956,660 photos uploaded!

WunderBlog® & News

Nearby

Air Quality

  Air Quality AQ Index Pollutant
Not available.

Snow Depth

Station Depth Elevation

Earthquake Activity

City Distance Mag. Time & Date
Minimum magnitude displayed is 2.5.

Coastal Water Temperatures

Place Temperature

Stations

Nearby Weather Stations

Station Location Temp. Windchill Dew Point Humidity Wind Precip. Elev Updated Type